الصفحة الرئيسية
METAR-TAF:

METAR-TAF

مطار :

كونسبثيون, تشيلي

دائرة عرض: 36-46S, خط طول: 073-03W, ارتفاع: 12 متر

مراقبة الطقس الحالي

تاريخ ووقت الإصدار 58 دقيقة قبل الساعة 21:00UTC
ريح 7 عقدة من الجنوب الغربي
درجة الحرارة 12°درجة مئوية
الرطوبة 62%
ضغط 1022 hPa
الرؤية 10 كم أو أكثر
الغيوم لا تقل 1500 م ولا وجود لمزنة ركامية السحاب الأسود

METAR: SCIE 212100Z 23007KT CAVOK 12/05 Q1022

زمن: 17:58 (21:58 UTC)

توقعات

تاريخ ووقت الإصدار 5ساعات و 47 دقيقة قبل الساعة 16:11UTC
التوقعات صالحة من21 الساعة 18 UTC إلى 22 الساعة 18 UTC
ريح 8 عقدة من الجنوب/الجنوب الغربي
الرؤية 10 كم أو أكثر
الغيوم لا تقل 1500 م ولا وجود لمزنة ركامية السحاب الأسود
أصبح
من 22 الساعة 01 UTC إلى 22 الساعة 03 UTC
ريح 4 عقدة من الجنوب الشرقي
الرؤية: 8000 متر
مؤقت
من 22 الساعة 04 UTC إلى 22 الساعة 10 UTC
ريح 2 عقدةمن اتجاهات متغيرة
الرؤية: 4000 متر
غيوم متفرقة على ارتفاع 300 قدم
غشاء
أصبح
من 22 الساعة 15 UTC إلى 22 الساعة 17 UTC
ريح 8 عقدة من الجنوب

TAF: SCIE 211611Z 2118/2218 20008KT CAVOK TX14/2119Z TN02/2210Z BECMG 2201/2203 13004KT 8000 NSC TEMPO 2204/2210 VRB02KT 4000 BR SCT003 BECMG 2215/2217 19008KT

أرصاد الطقس والتوقعات من أكثر من 4000 مطار (تقارير الطقس للمطار METAR والتنبؤ بالطقس بالمطارTAF).

المحطات المتاحة هي النقط الصفراء والحمراء على الخريطة.

حرك المؤشر فوق النقطة لمعرفة اسم المحطة.

ثم انقر لمعرفة أرصاد وتوقعات الطقس.

لتغيير الخارطة: اضغط على الأزرار الخضراء مع رمز الصليب الأسود للتكبير. على الزر الأخضر مع شرطة للتصغير، أو على الأسهم الخضراء للخرائط المجاورة.


METAR-TAF: